sensor_id;sensor_type;location;lat;lon;timestamp;pressure;altitude;pressure_sealevel;temperature;humidity
84427;BME280;74637;52.170;21.034;2024-02-26T00:01:47;99721.47;;;6.47;74.72
84427;BME280;74637;52.170;21.034;2024-02-26T00:04:13;99714.98;;;6.46;74.95
84427;BME280;74637;52.170;21.034;2024-02-26T00:06:40;99716.25;;;6.46;75.11
84427;BME280;74637;52.170;21.034;2024-02-26T00:09:10;99725.58;;;6.41;74.44
84427;BME280;74637;52.170;21.034;2024-02-26T00:11:36;99730.80;;;6.35;73.91
84427;BME280;74637;52.170;21.034;2024-02-26T00:14:04;99728.53;;;6.26;73.77
84427;BME280;74637;52.170;21.034;2024-02-26T00:16:31;99728.86;;;6.19;73.42
84427;BME280;74637;52.170;21.034;2024-02-26T00:18:58;99722.63;;;6.12;73.53
84427;BME280;74637;52.170;21.034;2024-02-26T00:21:25;99720.00;;;6.04;73.50
84427;BME280;74637;52.170;21.034;2024-02-26T00:23:53;99726.97;;;5.96;73.49
84427;BME280;74637;52.170;21.034;2024-02-26T00:26:19;99725.13;;;5.90;73.63
84427;BME280;74637;52.170;21.034;2024-02-26T00:28:46;99726.17;;;5.86;74.30
84427;BME280;74637;52.170;21.034;2024-02-26T00:31:12;99727.90;;;5.82;74.57
84427;BME280;74637;52.170;21.034;2024-02-26T00:33:39;99720.64;;;5.80;74.33
84427;BME280;74637;52.170;21.034;2024-02-26T00:36:06;99718.44;;;5.77;74.49
84427;BME280;74637;52.170;21.034;2024-02-26T00:38:32;99712.86;;;5.77;74.32
84427;BME280;74637;52.170;21.034;2024-02-26T00:40:59;99712.75;;;5.75;74.46
84427;BME280;74637;52.170;21.034;2024-02-26T00:43:26;99712.09;;;5.74;74.39
84427;BME280;74637;52.170;21.034;2024-02-26T00:45:52;99711.98;;;5.72;74.39
84427;BME280;74637;52.170;21.034;2024-02-26T00:48:19;99707.14;;;5.70;74.32
84427;BME280;74637;52.170;21.034;2024-02-26T00:50:45;99707.84;;;5.66;74.19
84427;BME280;74637;52.170;21.034;2024-02-26T00:53:12;99707.91;;;5.60;74.68
84427;BME280;74637;52.170;21.034;2024-02-26T00:55:38;99703.30;;;5.57;74.43
84427;BME280;74637;52.170;21.034;2024-02-26T00:58:05;99705.88;;;5.54;74.28
84427;BME280;74637;52.170;21.034;2024-02-26T01:00:32;99699.02;;;5.50;74.73
84427;BME280;74637;52.170;21.034;2024-02-26T01:02:58;99701.12;;;5.45;74.89
84427;BME280;74637;52.170;21.034;2024-02-26T01:05:26;99709.48;;;5.42;74.44
84427;BME280;74637;52.170;21.034;2024-02-26T01:07:53;99706.14;;;5.38;74.75
84427;BME280;74637;52.170;21.034;2024-02-26T01:10:19;99703.66;;;5.35;74.70
84427;BME280;74637;52.170;21.034;2024-02-26T01:12:46;99707.70;;;5.31;74.69
84427;BME280;74637;52.170;21.034;2024-02-26T01:15:14;99710.10;;;5.27;75.05
84427;BME280;74637;52.170;21.034;2024-02-26T01:17:40;99706.23;;;5.23;74.76
84427;BME280;74637;52.170;21.034;2024-02-26T01:20:07;99703.45;;;5.18;74.88
84427;BME280;74637;52.170;21.034;2024-02-26T01:22:35;99699.11;;;5.12;75.16
84427;BME280;74637;52.170;21.034;2024-02-26T01:25:01;99700.11;;;5.09;75.36
84427;BME280;74637;52.170;21.034;2024-02-26T01:27:28;99702.61;;;5.08;75.65
84427;BME280;74637;52.170;21.034;2024-02-26T01:29:55;99704.98;;;5.06;75.64
84427;BME280;74637;52.170;21.034;2024-02-26T01:32:21;99706.30;;;4.99;75.57
84427;BME280;74637;52.170;21.034;2024-02-26T01:34:48;99705.48;;;4.93;75.51
84427;BME280;74637;52.170;21.034;2024-02-26T01:37:15;99701.36;;;4.85;75.44
84427;BME280;74637;52.170;21.034;2024-02-26T01:39:41;99697.73;;;4.80;75.80
84427;BME280;74637;52.170;21.034;2024-02-26T01:42:08;99706.80;;;4.72;75.71
84427;BME280;74637;52.170;21.034;2024-02-26T01:44:34;99708.96;;;4.66;75.95
84427;BME280;74637;52.170;21.034;2024-02-26T01:47:01;99708.46;;;4.61;75.97
84427;BME280;74637;52.170;21.034;2024-02-26T01:49:29;99706.30;;;4.57;76.12
84427;BME280;74637;52.170;21.034;2024-02-26T01:51:57;99708.63;;;4.56;76.33
84427;BME280;74637;52.170;21.034;2024-02-26T01:54:25;99704.16;;;4.58;76.44
84427;BME280;74637;52.170;21.034;2024-02-26T01:56:52;99704.03;;;4.62;76.45
84427;BME280;74637;52.170;21.034;2024-02-26T01:59:19;99706.36;;;4.65;76.33
84427;BME280;74637;52.170;21.034;2024-02-26T02:01:48;99704.10;;;4.69;76.63
84427;BME280;74637;52.170;21.034;2024-02-26T02:04:20;99700.59;;;4.69;76.47
84427;BME280;74637;52.170;21.034;2024-02-26T02:06:47;99699.12;;;4.66;76.40
84427;BME280;74637;52.170;21.034;2024-02-26T02:09:16;99697.10;;;4.64;76.65
84427;BME280;74637;52.170;21.034;2024-02-26T02:11:42;99696.39;;;4.64;76.53
84427;BME280;74637;52.170;21.034;2024-02-26T02:14:10;99700.42;;;4.64;76.23
84427;BME280;74637;52.170;21.034;2024-02-26T02:16:37;99704.61;;;4.60;76.37
84427;BME280;74637;52.170;21.034;2024-02-26T02:19:03;99701.66;;;4.49;76.49
84427;BME280;74637;52.170;21.034;2024-02-26T02:21:30;99703.15;;;4.42;76.04
84427;BME280;74637;52.170;21.034;2024-02-26T02:23:56;99705.76;;;4.38;76.20
84427;BME280;74637;52.170;21.034;2024-02-26T02:26:23;99706.54;;;4.36;76.41
84427;BME280;74637;52.170;21.034;2024-02-26T02:28:50;99705.86;;;4.36;77.05
84427;BME280;74637;52.170;21.034;2024-02-26T02:31:17;99703.65;;;4.34;77.07
84427;BME280;74637;52.170;21.034;2024-02-26T02:33:44;99707.24;;;4.36;77.63
84427;BME280;74637;52.170;21.034;2024-02-26T02:36:10;99712.63;;;4.37;77.77
84427;BME280;74637;52.170;21.034;2024-02-26T02:38:37;99719.64;;;4.37;77.75
84427;BME280;74637;52.170;21.034;2024-02-26T02:41:04;99715.90;;;4.39;77.94
84427;BME280;74637;52.170;21.034;2024-02-26T02:43:31;99715.16;;;4.40;77.97
84427;BME280;74637;52.170;21.034;2024-02-26T02:45:58;99716.72;;;4.36;77.87
84427;BME280;74637;52.170;21.034;2024-02-26T02:48:24;99715.01;;;4.30;77.25
84427;BME280;74637;52.170;21.034;2024-02-26T02:50:52;99716.36;;;4.26;77.52
84427;BME280;74637;52.170;21.034;2024-02-26T02:53:18;99722.52;;;4.25;77.41
84427;BME280;74637;52.170;21.034;2024-02-26T02:55:45;99724.29;;;4.25;77.36
84427;BME280;74637;52.170;21.034;2024-02-26T02:58:11;99729.55;;;4.25;77.35
84427;BME280;74637;52.170;21.034;2024-02-26T03:00:38;99735.52;;;4.25;77.34
84427;BME280;74637;52.170;21.034;2024-02-26T03:03:04;99739.39;;;4.24;77.46
84427;BME280;74637;52.170;21.034;2024-02-26T03:05:31;99742.45;;;4.22;77.47
84427;BME280;74637;52.170;21.034;2024-02-26T03:07:58;99739.75;;;4.19;77.44
84427;BME280;74637;52.170;21.034;2024-02-26T03:10:24;99739.83;;;4.17;77.53
84427;BME280;74637;52.170;21.034;2024-02-26T03:12:51;99741.96;;;4.16;77.26
84427;BME280;74637;52.170;21.034;2024-02-26T03:15:17;99741.14;;;4.15;77.61
84427;BME280;74637;52.170;21.034;2024-02-26T03:17:44;99741.36;;;4.14;77.42
84427;BME280;74637;52.170;21.034;2024-02-26T03:20:11;99742.71;;;4.15;77.71
84427;BME280;74637;52.170;21.034;2024-02-26T03:22:40;99744.50;;;4.14;77.23
84427;BME280;74637;52.170;21.034;2024-02-26T03:25:07;99747.42;;;4.10;77.46
84427;BME280;74637;52.170;21.034;2024-02-26T03:27:34;99750.30;;;4.08;77.92
84427;BME280;74637;52.170;21.034;2024-02-26T03:30:01;99753.60;;;4.09;77.82
84427;BME280;74637;52.170;21.034;2024-02-26T03:32:27;99751.55;;;4.13;77.97
84427;BME280;74637;52.170;21.034;2024-02-26T03:34:54;99753.19;;;4.16;78.01
84427;BME280;74637;52.170;21.034;2024-02-26T03:37:22;99750.28;;;4.19;78.09
84427;BME280;74637;52.170;21.034;2024-02-26T03:39:48;99745.64;;;4.21;78.00
84427;BME280;74637;52.170;21.034;2024-02-26T03:42:15;99745.38;;;4.24;78.24
84427;BME280;74637;52.170;21.034;2024-02-26T03:44:42;99746.96;;;4.23;78.32
84427;BME280;74637;52.170;21.034;2024-02-26T03:47:09;99743.55;;;4.21;77.98
84427;BME280;74637;52.170;21.034;2024-02-26T03:49:36;99741.90;;;4.18;78.35
84427;BME280;74637;52.170;21.034;2024-02-26T03:52:03;99742.11;;;4.17;78.22
84427;BME280;74637;52.170;21.034;2024-02-26T03:54:29;99741.45;;;4.16;78.70
84427;BME280;74637;52.170;21.034;2024-02-26T03:56:56;99739.33;;;4.17;78.34
84427;BME280;74637;52.170;21.034;2024-02-26T03:59:22;99739.31;;;4.17;78.41
84427;BME280;74637;52.170;21.034;2024-02-26T04:01:51;99745.64;;;4.16;78.40
84427;BME280;74637;52.170;21.034;2024-02-26T04:04:18;99744.45;;;4.15;78.52
84427;BME280;74637;52.170;21.034;2024-02-26T04:06:47;99744.66;;;4.14;78.42
84427;BME280;74637;52.170;21.034;2024-02-26T04:09:14;99749.60;;;4.14;78.51
84427;BME280;74637;52.170;21.034;2024-02-26T04:11:41;99752.27;;;4.12;78.55
84427;BME280;74637;52.170;21.034;2024-02-26T04:14:09;99748.48;;;4.10;78.58
84427;BME280;74637;52.170;21.034;2024-02-26T04:16:38;99742.52;;;4.10;78.89
84427;BME280;74637;52.170;21.034;2024-02-26T04:19:05;99745.34;;;4.10;78.86
84427;BME280;74637;52.170;21.034;2024-02-26T04:21:33;99746.20;;;4.11;79.10
84427;BME280;74637;52.170;21.034;2024-02-26T04:24:00;99742.05;;;4.14;79.19
84427;BME280;74637;52.170;21.034;2024-02-26T04:26:30;99741.09;;;4.16;79.20
84427;BME280;74637;52.170;21.034;2024-02-26T04:28:57;99738.06;;;4.18;78.95
84427;BME280;74637;52.170;21.034;2024-02-26T04:31:23;99736.48;;;4.18;79.18
84427;BME280;74637;52.170;21.034;2024-02-26T04:33:50;99734.40;;;4.17;79.15
84427;BME280;74637;52.170;21.034;2024-02-26T04:36:16;99736.56;;;4.15;79.27
84427;BME280;74637;52.170;21.034;2024-02-26T04:38:44;99738.23;;;4.13;79.47
84427;BME280;74637;52.170;21.034;2024-02-26T04:41:11;99739.17;;;4.10;79.26
84427;BME280;74637;52.170;21.034;2024-02-26T04:43:38;99740.66;;;4.08;79.71
84427;BME280;74637;52.170;21.034;2024-02-26T04:46:10;99741.38;;;4.08;79.60
84427;BME280;74637;52.170;21.034;2024-02-26T04:48:37;99741.04;;;4.07;80.10
84427;BME280;74637;52.170;21.034;2024-02-26T04:51:04;99740.52;;;4.08;80.00
84427;BME280;74637;52.170;21.034;2024-02-26T04:53:31;99745.59;;;4.07;80.33
84427;BME280;74637;52.170;21.034;2024-02-26T04:55:58;99749.27;;;4.08;80.06
84427;BME280;74637;52.170;21.034;2024-02-26T04:58:24;99750.91;;;4.06;80.13
84427;BME280;74637;52.170;21.034;2024-02-26T05:00:51;99749.52;;;4.06;80.20
84427;BME280;74637;52.170;21.034;2024-02-26T05:03:17;99747.48;;;4.09;80.49
84427;BME280;74637;52.170;21.034;2024-02-26T05:05:44;99748.77;;;4.12;80.51
84427;BME280;74637;52.170;21.034;2024-02-26T05:08:11;99747.95;;;4.16;80.67
84427;BME280;74637;52.170;21.034;2024-02-26T05:10:38;99742.92;;;4.19;80.42
84427;BME280;74637;52.170;21.034;2024-02-26T05:13:07;99751.22;;;4.22;80.78
84427;BME280;74637;52.170;21.034;2024-02-26T05:15:35;99753.23;;;4.25;80.59
84427;BME280;74637;52.170;21.034;2024-02-26T05:18:02;99753.04;;;4.25;80.24
84427;BME280;74637;52.170;21.034;2024-02-26T05:20:29;99749.53;;;4.25;80.41
84427;BME280;74637;52.170;21.034;2024-02-26T05:22:56;99752.02;;;4.24;80.36
84427;BME280;74637;52.170;21.034;2024-02-26T05:25:25;99755.15;;;4.25;80.68
84427;BME280;74637;52.170;21.034;2024-02-26T05:27:51;99752.85;;;4.26;80.77
84427;BME280;74637;52.170;21.034;2024-02-26T05:30:18;99751.23;;;4.27;80.33
84427;BME280;74637;52.170;21.034;2024-02-26T05:32:45;99756.63;;;4.29;80.57
84427;BME280;74637;52.170;21.034;2024-02-26T05:35:11;99761.38;;;4.28;80.45
84427;BME280;74637;52.170;21.034;2024-02-26T05:37:38;99761.48;;;4.25;80.10
84427;BME280;74637;52.170;21.034;2024-02-26T05:40:05;99764.10;;;4.20;80.34
84427;BME280;74637;52.170;21.034;2024-02-26T05:42:32;99769.14;;;4.16;80.68
84427;BME280;74637;52.170;21.034;2024-02-26T05:44:59;99774.06;;;4.16;80.43
84427;BME280;74637;52.170;21.034;2024-02-26T05:47:34;99778.25;;;4.17;80.60
84427;BME280;74637;52.170;21.034;2024-02-26T05:50:02;99775.79;;;4.17;80.58
84427;BME280;74637;52.170;21.034;2024-02-26T05:52:28;99776.77;;;4.19;80.59
84427;BME280;74637;52.170;21.034;2024-02-26T05:54:59;99771.92;;;4.22;80.68
84427;BME280;74637;52.170;21.034;2024-02-26T05:57:25;99769.86;;;4.26;80.67
84427;BME280;74637;52.170;21.034;2024-02-26T05:59:52;99775.48;;;4.31;81.07
84427;BME280;74637;52.170;21.034;2024-02-26T06:02:18;99778.42;;;4.37;80.91
84427;BME280;74637;52.170;21.034;2024-02-26T06:04:45;99781.50;;;4.44;80.94
84427;BME280;74637;52.170;21.034;2024-02-26T06:07:12;99780.75;;;4.51;81.04
84427;BME280;74637;52.170;21.034;2024-02-26T06:09:39;99784.05;;;4.57;81.24
84427;BME280;74637;52.170;21.034;2024-02-26T06:12:06;99786.08;;;4.64;81.26
84427;BME280;74637;52.170;21.034;2024-02-26T06:14:33;99784.41;;;4.71;80.90
84427;BME280;74637;52.170;21.034;2024-02-26T06:16:59;99789.52;;;4.75;80.99
84427;BME280;74637;52.170;21.034;2024-02-26T06:19:26;99786.33;;;4.81;80.93
84427;BME280;74637;52.170;21.034;2024-02-26T06:21:52;99788.61;;;4.86;81.08
84427;BME280;74637;52.170;21.034;2024-02-26T06:24:19;99790.05;;;4.90;81.30
84427;BME280;74637;52.170;21.034;2024-02-26T06:26:47;99785.86;;;4.94;81.50
84427;BME280;74637;52.170;21.034;2024-02-26T06:29:14;99785.48;;;4.99;80.96
84427;BME280;74637;52.170;21.034;2024-02-26T06:31:41;99786.30;;;5.06;81.07
84427;BME280;74637;52.170;21.034;2024-02-26T06:34:07;99788.48;;;5.12;81.12
84427;BME280;74637;52.170;21.034;2024-02-26T06:36:34;99790.02;;;5.19;81.19
84427;BME280;74637;52.170;21.034;2024-02-26T06:39:01;99793.88;;;5.23;81.19
84427;BME280;74637;52.170;21.034;2024-02-26T06:41:27;99789.31;;;5.28;80.99
84427;BME280;74637;52.170;21.034;2024-02-26T06:43:56;99788.66;;;5.36;80.89
84427;BME280;74637;52.170;21.034;2024-02-26T06:46:23;99790.77;;;5.44;80.70
84427;BME280;74637;52.170;21.034;2024-02-26T06:48:49;99792.27;;;5.52;80.90
84427;BME280;74637;52.170;21.034;2024-02-26T06:51:16;99800.48;;;5.53;80.81
84427;BME280;74637;52.170;21.034;2024-02-26T06:53:42;99795.39;;;5.52;80.94
84427;BME280;74637;52.170;21.034;2024-02-26T06:56:09;99799.20;;;5.54;81.03
84427;BME280;74637;52.170;21.034;2024-02-26T06:58:35;99800.20;;;5.55;81.14
84427;BME280;74637;52.170;21.034;2024-02-26T07:01:02;99800.11;;;5.58;80.86
84427;BME280;74637;52.170;21.034;2024-02-26T07:03:28;99802.66;;;5.59;81.02
84427;BME280;74637;52.170;21.034;2024-02-26T07:05:56;99803.51;;;5.61;81.36
84427;BME280;74637;52.170;21.034;2024-02-26T07:08:23;99802.95;;;5.61;81.52
84427;BME280;74637;52.170;21.034;2024-02-26T07:10:49;99805.83;;;5.64;81.85
84427;BME280;74637;52.170;21.034;2024-02-26T07:13:16;99808.89;;;5.67;81.89
84427;BME280;74637;52.170;21.034;2024-02-26T07:15:43;99811.01;;;5.70;81.54
84427;BME280;74637;52.170;21.034;2024-02-26T07:18:09;99813.12;;;5.75;81.54
84427;BME280;74637;52.170;21.034;2024-02-26T07:20:36;99812.40;;;5.80;81.75
84427;BME280;74637;52.170;21.034;2024-02-26T07:23:03;99811.16;;;5.84;81.44
84427;BME280;74637;52.170;21.034;2024-02-26T07:25:30;99811.08;;;5.91;81.60
84427;BME280;74637;52.170;21.034;2024-02-26T07:27:56;99814.33;;;5.97;81.58
84427;BME280;74637;52.170;21.034;2024-02-26T07:30:23;99818.11;;;6.05;81.86
84427;BME280;74637;52.170;21.034;2024-02-26T07:32:51;99817.10;;;6.12;81.42
84427;BME280;74637;52.170;21.034;2024-02-26T07:35:17;99819.99;;;6.19;81.48
84427;BME280;74637;52.170;21.034;2024-02-26T07:37:44;99819.70;;;6.26;81.62
84427;BME280;74637;52.170;21.034;2024-02-26T07:40:11;99824.67;;;6.33;81.56
84427;BME280;74637;52.170;21.034;2024-02-26T07:42:37;99824.67;;;6.42;81.72
84427;BME280;74637;52.170;21.034;2024-02-26T07:45:06;99824.93;;;6.52;81.52
84427;BME280;74637;52.170;21.034;2024-02-26T07:47:32;99827.70;;;6.61;81.62
84427;BME280;74637;52.170;21.034;2024-02-26T07:50:01;99828.55;;;6.70;81.48
84427;BME280;74637;52.170;21.034;2024-02-26T07:52:28;99829.10;;;6.77;81.49
84427;BME280;74637;52.170;21.034;2024-02-26T07:54:54;99829.30;;;6.85;81.61
84427;BME280;74637;52.170;21.034;2024-02-26T07:57:21;99825.61;;;6.93;81.55
84427;BME280;74637;52.170;21.034;2024-02-26T07:59:47;99830.87;;;7.01;81.73
84427;BME280;74637;52.170;21.034;2024-02-26T08:02:17;99832.76;;;7.10;81.65
84427;BME280;74637;52.170;21.034;2024-02-26T08:04:43;99828.43;;;7.20;81.65
84427;BME280;74637;52.170;21.034;2024-02-26T08:07:10;99831.33;;;7.30;81.51
84427;BME280;74637;52.170;21.034;2024-02-26T08:09:37;99835.78;;;7.40;81.31
84427;BME280;74637;52.170;21.034;2024-02-26T08:12:04;99839.80;;;7.48;81.22
84427;BME280;74637;52.170;21.034;2024-02-26T08:14:30;99841.68;;;7.57;81.30
84427;BME280;74637;52.170;21.034;2024-02-26T08:16:59;99841.14;;;7.69;81.60
84427;BME280;74637;52.170;21.034;2024-02-26T08:19:26;99840.53;;;7.82;81.47
84427;BME280;74637;52.170;21.034;2024-02-26T08:21:53;99840.09;;;7.94;81.27
84427;BME280;74637;52.170;21.034;2024-02-26T08:24:20;99843.73;;;8.06;81.24
84427;BME280;74637;52.170;21.034;2024-02-26T08:26:47;99841.59;;;8.18;81.24
84427;BME280;74637;52.170;21.034;2024-02-26T08:29:13;99837.05;;;8.31;81.38
84427;BME280;74637;52.170;21.034;2024-02-26T08:31:40;99845.13;;;8.42;81.15
84427;BME280;74637;52.170;21.034;2024-02-26T08:34:07;99849.45;;;8.52;80.85
84427;BME280;74637;52.170;21.034;2024-02-26T08:36:34;99849.20;;;8.60;80.87
84427;BME280;74637;52.170;21.034;2024-02-26T08:39:01;99849.52;;;8.68;80.63
84427;BME280;74637;52.170;21.034;2024-02-26T08:41:28;99850.97;;;8.77;80.72
84427;BME280;74637;52.170;21.034;2024-02-26T08:43:55;99852.19;;;8.88;80.59
84427;BME280;74637;52.170;21.034;2024-02-26T08:46:22;99854.91;;;9.00;80.39
84427;BME280;74637;52.170;21.034;2024-02-26T08:48:48;99852.34;;;9.12;80.58
84427;BME280;74637;52.170;21.034;2024-02-26T08:51:15;99847.96;;;9.24;80.22
84427;BME280;74637;52.170;21.034;2024-02-26T08:53:42;99849.41;;;9.37;80.04
84427;BME280;74637;52.170;21.034;2024-02-26T08:56:09;99848.05;;;9.46;79.69
84427;BME280;74637;52.170;21.034;2024-02-26T08:58:37;99845.98;;;9.54;79.55
84427;BME280;74637;52.170;21.034;2024-02-26T09:01:04;99843.81;;;9.64;79.39
84427;BME280;74637;52.170;21.034;2024-02-26T09:03:30;99844.52;;;9.77;79.06
84427;BME280;74637;52.170;21.034;2024-02-26T09:05:57;99852.95;;;9.92;79.04
84427;BME280;74637;52.170;21.034;2024-02-26T09:08:23;99851.61;;;10.05;78.82
84427;BME280;74637;52.170;21.034;2024-02-26T09:10:50;99855.70;;;10.21;78.65
84427;BME280;74637;52.170;21.034;2024-02-26T09:13:17;99853.31;;;10.34;78.09
84427;BME280;74637;52.170;21.034;2024-02-26T09:15:45;99849.40;;;10.50;78.00
84427;BME280;74637;52.170;21.034;2024-02-26T09:18:12;99850.48;;;10.65;77.49
84427;BME280;74637;52.170;21.034;2024-02-26T09:20:39;99853.73;;;10.79;76.98
84427;BME280;74637;52.170;21.034;2024-02-26T09:23:06;99856.94;;;10.93;77.03
84427;BME280;74637;52.170;21.034;2024-02-26T09:25:32;99857.61;;;11.08;76.83
84427;BME280;74637;52.170;21.034;2024-02-26T09:27:59;99859.93;;;11.17;75.95
84427;BME280;74637;52.170;21.034;2024-02-26T09:30:26;99856.46;;;11.21;76.08
84427;BME280;74637;52.170;21.034;2024-02-26T09:32:53;99856.40;;;11.31;75.82
84427;BME280;74637;52.170;21.034;2024-02-26T09:35:20;99857.65;;;11.37;75.13
84427;BME280;74637;52.170;21.034;2024-02-26T09:37:47;99856.14;;;11.35;75.30
84427;BME280;74637;52.170;21.034;2024-02-26T09:40:15;99861.54;;;11.31;75.24
84427;BME280;74637;52.170;21.034;2024-02-26T09:42:44;99862.22;;;11.28;74.88
84427;BME280;74637;52.170;21.034;2024-02-26T09:45:22;99860.70;;;11.24;75.06
84427;BME280;74637;52.170;21.034;2024-02-26T09:47:49;99860.16;;;11.22;74.82
84427;BME280;74637;52.170;21.034;2024-02-26T09:50:20;99859.70;;;11.18;74.45
84427;BME280;74637;52.170;21.034;2024-02-26T09:52:49;99866.92;;;11.13;74.21
84427;BME280;74637;52.170;21.034;2024-02-26T09:55:17;99871.35;;;11.07;74.34
84427;BME280;74637;52.170;21.034;2024-02-26T09:57:46;99872.85;;;11.00;74.28
84427;BME280;74637;52.170;21.034;2024-02-26T10:00:20;99880.73;;;10.92;74.63
84427;BME280;74637;52.170;21.034;2024-02-26T10:02:48;99882.18;;;10.86;74.65
84427;BME280;74637;52.170;21.034;2024-02-26T10:05:18;99885.77;;;10.79;74.69
84427;BME280;74637;52.170;21.034;2024-02-26T10:07:49;99879.86;;;10.75;74.89
84427;BME280;74637;52.170;21.034;2024-02-26T10:10:17;99879.73;;;10.71;75.02
84427;BME280;74637;52.170;21.034;2024-02-26T10:12:44;99882.30;;;10.69;75.24
84427;BME280;74637;52.170;21.034;2024-02-26T10:15:11;99884.02;;;10.70;75.36
84427;BME280;74637;52.170;21.034;2024-02-26T10:17:38;99881.46;;;10.75;75.51
84427;BME280;74637;52.170;21.034;2024-02-26T10:20:12;99881.81;;;10.78;75.24
84427;BME280;74637;52.170;21.034;2024-02-26T10:22:40;99883.93;;;10.78;75.12
84427;BME280;74637;52.170;21.034;2024-02-26T10:25:08;99881.66;;;10.74;74.95
84427;BME280;74637;52.170;21.034;2024-02-26T10:27:35;99880.49;;;10.70;75.17
84427;BME280;74637;52.170;21.034;2024-02-26T10:30:24;99883.70;;;10.63;75.21
84427;BME280;74637;52.170;21.034;2024-02-26T10:32:49;99878.31;;;10.59;75.37
84427;BME280;74637;52.170;21.034;2024-02-26T10:35:17;99883.04;;;10.60;74.98
84427;BME280;74637;52.170;21.034;2024-02-26T10:37:48;99884.92;;;10.55;74.85
84427;BME280;74637;52.170;21.034;2024-02-26T10:40:16;99892.41;;;10.54;75.19
84427;BME280;74637;52.170;21.034;2024-02-26T10:42:43;99890.64;;;10.57;74.95
84427;BME280;74637;52.170;21.034;2024-02-26T10:45:12;99890.91;;;10.55;74.80
84427;BME280;74637;52.170;21.034;2024-02-26T10:47:40;99892.39;;;10.51;74.51
84427;BME280;74637;52.170;21.034;2024-02-26T10:50:08;99895.30;;;10.50;74.75
84427;BME280;74637;52.170;21.034;2024-02-26T10:52:36;99892.98;;;10.53;74.71
84427;BME280;74637;52.170;21.034;2024-02-26T10:55:04;99883.36;;;10.57;74.64
84427;BME280;74637;52.170;21.034;2024-02-26T10:57:36;99884.01;;;10.58;74.46
84427;BME280;74637;52.170;21.034;2024-02-26T11:00:06;99883.94;;;10.60;74.74
84427;BME280;74637;52.170;21.034;2024-02-26T11:02:33;99877.61;;;10.62;74.73
84427;BME280;74637;52.170;21.034;2024-02-26T11:05:04;99876.69;;;10.65;74.68
84427;BME280;74637;52.170;21.034;2024-02-26T11:07:31;99874.97;;;10.76;74.02
84427;BME280;74637;52.170;21.034;2024-02-26T11:09:59;99874.31;;;10.96;73.78
84427;BME280;74637;52.170;21.034;2024-02-26T11:12:28;99872.49;;;11.17;73.15
84427;BME280;74637;52.170;21.034;2024-02-26T11:14:56;99871.71;;;11.41;73.17
84427;BME280;74637;52.170;21.034;2024-02-26T11:17:27;99867.65;;;11.80;72.39
84427;BME280;74637;52.170;21.034;2024-02-26T11:19:59;99863.81;;;12.50;71.84
84427;BME280;74637;52.170;21.034;2024-02-26T11:22:26;99859.52;;;13.11;68.73
84427;BME280;74637;52.170;21.034;2024-02-26T11:24:54;99863.91;;;13.27;68.41
84427;BME280;74637;52.170;21.034;2024-02-26T11:27:25;99864.98;;;13.32;68.51
84427;BME280;74637;52.170;21.034;2024-02-26T11:29:54;99861.27;;;13.34;68.17
84427;BME280;74637;52.170;21.034;2024-02-26T11:32:21;99861.19;;;13.38;68.45
84427;BME280;74637;52.170;21.034;2024-02-26T11:34:49;99862.27;;;13.48;67.82
84427;BME280;74637;52.170;21.034;2024-02-26T11:37:16;99867.95;;;13.43;66.22
84427;BME280;74637;52.170;21.034;2024-02-26T11:39:45;99863.45;;;13.33;66.00
84427;BME280;74637;52.170;21.034;2024-02-26T11:42:16;99860.26;;;13.26;66.37
84427;BME280;74637;52.170;21.034;2024-02-26T11:44:42;99854.40;;;13.30;66.42
84427;BME280;74637;52.170;21.034;2024-02-26T11:47:13;99854.70;;;13.52;66.76
84427;BME280;74637;52.170;21.034;2024-02-26T11:49:41;99854.52;;;13.77;65.58
84427;BME280;74637;52.170;21.034;2024-02-26T11:52:08;99853.95;;;13.85;63.35
84427;BME280;74637;52.170;21.034;2024-02-26T11:59:50;99853.78;;;13.99;62.80
84427;BME280;74637;52.170;21.034;2024-02-26T12:02:52;99851.48;;;14.66;63.41
84427;BME280;74637;52.170;21.034;2024-02-26T12:05:32;99848.07;;;15.98;59.57
84427;BME280;74637;52.170;21.034;2024-02-26T12:08:01;99851.35;;;16.60;58.88
84427;BME280;74637;52.170;21.034;2024-02-26T12:10:35;99845.02;;;17.31;58.05
84427;BME280;74637;52.170;21.034;2024-02-26T12:13:15;99843.08;;;18.14;55.52
84427;BME280;74637;52.170;21.034;2024-02-26T12:15:44;99837.16;;;18.78;52.34
84427;BME280;74637;52.170;21.034;2024-02-26T12:18:16;99842.41;;;19.66;51.52
84427;BME280;74637;52.170;21.034;2024-02-26T12:20:43;99842.67;;;20.57;49.66
84427;BME280;74637;52.170;21.034;2024-02-26T12:23:16;99843.42;;;21.42;47.58
84427;BME280;74637;52.170;21.034;2024-02-26T12:25:46;99843.30;;;21.98;45.08
84427;BME280;74637;52.170;21.034;2024-02-26T12:28:14;99842.30;;;22.12;43.42
84427;BME280;74637;52.170;21.034;2024-02-26T12:30:41;99847.33;;;22.13;42.64
84427;BME280;74637;52.170;21.034;2024-02-26T12:33:08;99839.67;;;22.26;42.85
84427;BME280;74637;52.170;21.034;2024-02-26T12:35:35;99843.90;;;22.19;41.90
84427;BME280;74637;52.170;21.034;2024-02-26T12:38:03;99843.77;;;21.77;42.46
84427;BME280;74637;52.170;21.034;2024-02-26T12:40:31;99843.71;;;21.99;43.55
84427;BME280;74637;52.170;21.034;2024-02-26T12:42:58;99838.05;;;22.69;41.43
84427;BME280;74637;52.170;21.034;2024-02-26T12:45:25;99835.09;;;22.76;38.32
84427;BME280;74637;52.170;21.034;2024-02-26T12:47:52;99837.33;;;22.63;40.57
84427;BME280;74637;52.170;21.034;2024-02-26T12:50:19;99835.48;;;23.09;38.33
84427;BME280;74637;52.170;21.034;2024-02-26T12:52:47;99842.67;;;23.34;38.72
84427;BME280;74637;52.170;21.034;2024-02-26T12:55:20;99841.20;;;23.72;39.05
84427;BME280;74637;52.170;21.034;2024-02-26T12:57:48;99840.09;;;24.55;38.25
84427;BME280;74637;52.170;21.034;2024-02-26T13:00:20;99831.72;;;25.45;36.97
84427;BME280;74637;52.170;21.034;2024-02-26T13:02:49;99830.27;;;25.93;34.92
84427;BME280;74637;52.170;21.034;2024-02-26T13:05:19;99830.89;;;26.18;33.55